Time;durP1;ratioP1;P1;durP2;ratioP2;P2;SDS_P1;SDS_P2;PMS_P1;PMS_P2;Temp;Humidity;BMP_temperature;BMP_pressure;BME280_temperature;BME280_humidity;BME280_pressure;Samples;Min_cycle;Max_cycle;Signal;HPM_P1;HPM_P2
2023/08/12 00:02:21;;;;;;;;;;;;;;;17.91;48.32;95850.81;4940906;28;20046;-68
2023/08/12 00:04:47;;;;;;;;;;;;;;;18.24;47.54;95848.88;4941100;28;19926;-66
2023/08/12 00:07:12;;;;;;;;;;;;;;;18.03;48.58;95837.47;4939625;28;20296;-68
2023/08/12 00:09:38;;;;;;;;;;;;;;;18.12;49.67;95842.56;4940268;28;19922;-66
2023/08/12 00:12:03;;;;;;;;;;;;;;;17.99;50.66;95838.97;4941458;28;19922;-68
2023/08/12 00:14:28;;;;;;;;;;;;;;;18.44;49.08;95837.91;4941651;28;20198;-68
2023/08/12 00:16:54;;;;;;;;;;;;;;;18.31;49.81;95838.03;4941800;28;19919;-69
2023/08/12 00:19:19;;;;;;;;;;;;;;;18.15;50.32;95836.75;4940037;28;19922;-68
2023/08/12 00:21:44;;;;;;;;;;;;;;;18.36;50.10;95848.16;4939183;28;19931;-68
2023/08/12 00:24:09;;;;;;;;;;;;;;;18.61;50.16;95836.50;4940292;28;20327;-69
2023/08/12 00:26:35;;;;;;;;;;;;;;;18.55;49.91;95828.25;4941814;28;20486;-68
2023/08/12 00:29:00;;;;;;;;;;;;;;;18.59;50.62;95827.84;4941243;28;20423;-68
2023/08/12 00:31:25;;;;;;;;;;;;;;;17.87;52.30;95822.66;4942032;28;20265;-68
2023/08/12 00:33:50;;;;;;;;;;;;;;;17.75;53.29;95817.13;4940356;28;20101;-68
2023/08/12 00:36:15;;;;;;;;;;;;;;;17.57;52.31;95817.91;4941082;28;19984;-67
2023/08/12 00:38:41;;;;;;;;;;;;;;;17.43;54.48;95821.75;4940498;28;20107;-67
2023/08/12 00:41:06;;;;;;;;;;;;;;;17.12;55.08;95811.56;4938477;28;19938;-68
2023/08/12 00:43:31;;;;;;;;;;;;;;;17.05;55.83;95809.91;4939459;28;19958;-68
2023/08/12 00:45:56;;;;;;;;;;;;;;;16.50;56.54;95809.31;4941116;28;19923;-68
2023/08/12 00:48:23;;;;;;;;;;;;;;;15.97;59.04;95806.47;4940470;28;20336;-68
2023/08/12 00:50:48;;;;;;;;;;;;;;;15.59;59.71;95804.41;4935033;28;19918;-67
2023/08/12 00:53:13;;;;;;;;;;;;;;;15.73;59.92;95807.94;4939670;28;19977;-67
2023/08/12 00:55:38;;;;;;;;;;;;;;;15.39;61.19;95810.56;4939370;28;19981;-68
2023/08/12 00:58:04;;;;;;;;;;;;;;;14.96;62.38;95817.88;4939586;29;20135;-66
2023/08/12 01:00:29;;;;;;;;;;;;;;;14.75;63.84;95816.16;4940966;28;20226;-68
2023/08/12 01:02:54;;;;;;;;;;;;;;;14.60;64.75;95813.59;4939735;29;20015;-68
2023/08/12 01:05:20;;;;;;;;;;;;;;;14.52;65.05;95814.56;4938322;28;20664;-67
2023/08/12 01:07:46;;;;;;;;;;;;;;;14.10;67.00;95813.72;4934811;28;20069;-67
2023/08/12 01:10:14;;;;;;;;;;;;;;;13.90;68.98;95812.56;4940627;28;19918;-67
2023/08/12 01:12:58;;;;;;;;;;;;;;;13.76;69.64;95806.25;4940295;28;20319;-67
2023/08/12 01:15:24;;;;;;;;;;;;;;;13.57;70.54;95811.22;4940438;28;19921;-67
2023/08/12 01:17:52;;;;;;;;;;;;;;;13.61;70.30;95811.69;4937301;28;20162;-67
2023/08/12 01:20:17;;;;;;;;;;;;;;;13.69;70.77;95806.19;4936237;28;20446;-68
2023/08/12 01:22:43;;;;;;;;;;;;;;;13.74;71.12;95816.31;4935852;28;19918;-67
2023/08/12 01:25:09;;;;;;;;;;;;;;;13.93;71.27;95814.84;4936710;28;20435;-67
2023/08/12 01:27:35;;;;;;;;;;;;;;;13.65;72.70;95810.28;4934160;28;20069;-67
2023/08/12 01:30:00;;;;;;;;;;;;;;;13.74;70.85;95800.28;4937089;29;19965;-68
2023/08/12 01:32:37;;;;;;;;;;;;;;;14.07;70.20;95801.53;4931663;28;20021;-67
2023/08/12 01:35:08;;;;;;;;;;;;;;;14.17;68.88;95803.88;4938194;29;19914;-68
2023/08/12 01:37:33;;;;;;;;;;;;;;;14.21;69.29;95800.59;4932409;29;19969;-68
2023/08/12 01:40:00;;;;;;;;;;;;;;;14.36;68.22;95791.63;4932992;28;20380;-67
2023/08/12 01:42:25;;;;;;;;;;;;;;;14.22;69.17;95785.38;4933389;29;19941;-67
2023/08/12 01:44:50;;;;;;;;;;;;;;;14.40;69.19;95782.19;4931319;29;20714;-68
2023/08/12 01:47:15;;;;;;;;;;;;;;;14.67;68.45;95786.81;4948094;28;19919;-68
2023/08/12 01:49:41;;;;;;;;;;;;;;;14.63;67.55;95774.84;4932877;28;20391;-68
2023/08/12 01:52:06;;;;;;;;;;;;;;;14.67;68.38;95784.13;4934134;28;19923;-68
2023/08/12 01:54:33;;;;;;;;;;;;;;;15.00;64.80;95786.16;4938822;29;19923;-68
2023/08/12 01:57:02;;;;;;;;;;;;;;;15.10;64.36;95783.09;4937954;28;20025;-67
2023/08/12 01:59:27;;;;;;;;;;;;;;;15.16;64.24;95784.94;4935983;28;20022;-67
2023/08/12 02:01:52;;;;;;;;;;;;;;;15.09;66.02;95784.09;4938175;29;19987;-68
2023/08/12 02:04:18;;;;;;;;;;;;;;;14.87;66.81;95781.56;4936353;28;19973;-68
2023/08/12 02:06:43;;;;;;;;;;;;;;;14.77;67.71;95791.84;4937486;28;20399;-67
2023/08/12 02:09:08;;;;;;;;;;;;;;;14.97;67.09;95791.91;4934560;29;20009;-67
2023/08/12 02:11:33;;;;;;;;;;;;;;;14.85;66.56;95805.06;4936095;28;19957;-68
2023/08/12 02:13:59;;;;;;;;;;;;;;;14.67;68.66;95801.06;4937100;29;20174;-68
2023/08/12 02:16:24;;;;;;;;;;;;;;;14.45;69.50;95805.69;4936774;28;19918;-68
2023/08/12 02:18:49;;;;;;;;;;;;;;;14.45;68.68;95797.66;4936171;29;19915;-68
2023/08/12 02:21:14;;;;;;;;;;;;;;;14.37;69.08;95795.97;4935587;28;19935;-67
2023/08/12 02:23:40;;;;;;;;;;;;;;;14.62;69.11;95808.03;4935013;28;19919;-67
2023/08/12 02:26:05;;;;;;;;;;;;;;;14.61;69.66;95809.88;4934256;28;19915;-69
2023/08/12 02:28:30;;;;;;;;;;;;;;;14.60;69.92;95813.59;4937826;28;19922;-68
2023/08/12 02:30:55;;;;;;;;;;;;;;;14.84;68.71;95806.94;4935338;28;20362;-67
2023/08/12 02:33:20;;;;;;;;;;;;;;;14.89;67.96;95813.53;4937320;28;20107;-68
2023/08/12 02:35:46;;;;;;;;;;;;;;;14.95;68.08;95816.22;4937885;28;19919;-67
2023/08/12 02:38:11;;;;;;;;;;;;;;;14.90;68.01;95829.41;4942408;29;20209;-67
2023/08/12 02:40:36;;;;;;;;;;;;;;;15.11;68.10;95827.63;4943327;28;19926;-68
2023/08/12 02:43:02;;;;;;;;;;;;;;;15.39;67.07;95820.44;4937812;29;19919;-68
2023/08/12 02:45:27;;;;;;;;;;;;;;;15.55;64.96;95808.50;4942399;28;19926;-70
2023/08/12 02:47:52;;;;;;;;;;;;;;;15.58;63.59;95792.88;4941494;28;20156;-70
2023/08/12 02:50:17;;;;;;;;;;;;;;;16.02;61.90;95778.19;4937013;28;20054;-67
2023/08/12 02:52:42;;;;;;;;;;;;;;;16.54;60.96;95778.28;4942225;28;19945;-69
2023/08/12 02:55:08;;;;;;;;;;;;;;;16.99;59.96;95768.56;4942730;28;19950;-70
2023/08/12 02:57:33;;;;;;;;;;;;;;;17.32;59.02;95783.72;4939983;28;19919;-67
2023/08/12 02:59:58;;;;;;;;;;;;;;;17.45;55.41;95788.19;4942253;28;19953;-68
2023/08/12 03:02:24;;;;;;;;;;;;;;;17.78;55.91;95787.09;4941965;28;19992;-69
2023/08/12 03:04:49;;;;;;;;;;;;;;;17.95;55.98;95773.09;4943208;28;19923;-71
2023/08/12 03:07:14;;;;;;;;;;;;;;;18.08;54.79;95776.72;4942378;29;20467;-69
2023/08/12 03:09:39;;;;;;;;;;;;;;;18.18;51.21;95769.75;4940035;28;19923;-68
2023/08/12 03:12:05;;;;;;;;;;;;;;;18.32;53.72;95750.75;4940636;28;19926;-67
2023/08/12 03:14:31;;;;;;;;;;;;;;;18.36;54.76;95761.91;4938878;28;19923;-69
2023/08/12 03:16:56;;;;;;;;;;;;;;;18.35;49.56;95757.59;4940443;28;20336;-69
2023/08/12 03:19:21;;;;;;;;;;;;;;;18.51;53.88;95759.66;4937548;29;20040;-69
2023/08/12 03:21:46;;;;;;;;;;;;;;;18.58;53.96;95748.00;4939467;28;19930;-68
2023/08/12 03:24:12;;;;;;;;;;;;;;;18.69;53.85;95748.06;4935503;28;19953;-66
2023/08/12 03:26:37;;;;;;;;;;;;;;;18.77;52.99;95740.72;4942995;29;19973;-66
2023/08/12 03:29:02;;;;;;;;;;;;;;;18.23;54.10;95761.03;4935566;28;19922;-66
2023/08/12 03:31:27;;;;;;;;;;;;;;;18.16;54.45;95761.06;4936995;28;20293;-69
2023/08/12 03:33:53;;;;;;;;;;;;;;;18.19;54.15;95749.03;4933699;29;20328;-68
2023/08/12 03:36:18;;;;;;;;;;;;;;;18.20;53.29;95758.75;4940748;28;19948;-66
2023/08/12 03:38:43;;;;;;;;;;;;;;;18.23;54.17;95747.53;4942334;28;20242;-66
2023/08/12 03:41:08;;;;;;;;;;;;;;;18.48;53.16;95735.00;4939490;28;20141;-68
2023/08/12 03:43:34;;;;;;;;;;;;;;;18.66;53.52;95736.94;4939976;28;19969;-66
2023/08/12 03:45:59;;;;;;;;;;;;;;;18.78;51.46;95739.66;4942532;28;19921;-68
2023/08/12 03:48:24;;;;;;;;;;;;;;;18.84;51.08;95744.16;4941834;28;20249;-68
2023/08/12 03:50:50;;;;;;;;;;;;;;;18.91;52.82;95744.88;4936695;28;20285;-67
2023/08/12 03:53:16;;;;;;;;;;;;;;;19.01;52.59;95747.03;4942226;28;19926;-66
2023/08/12 03:55:41;;;;;;;;;;;;;;;19.05;52.48;95737.44;4941821;28;19945;-66
2023/08/12 03:58:06;;;;;;;;;;;;;;;19.10;52.63;95735.91;4941576;28;19965;-68
2023/08/12 04:00:31;;;;;;;;;;;;;;;19.19;51.81;95745.31;4941402;28;20307;-68
2023/08/12 04:02:57;;;;;;;;;;;;;;;19.19;52.58;95731.81;4941839;29;20435;-68
2023/08/12 04:05:22;;;;;;;;;;;;;;;19.20;51.90;95737.00;4941135;28;20350;-68
2023/08/12 04:07:47;;;;;;;;;;;;;;;19.21;52.31;95727.84;4942071;28;19919;-68
2023/08/12 04:10:12;;;;;;;;;;;;;;;19.27;52.06;95725.28;4940012;28;19922;-68
2023/08/12 04:12:37;;;;;;;;;;;;;;;19.27;52.54;95728.81;4937597;28;19928;-66
2023/08/12 04:15:05;;;;;;;;;;;;;;;19.30;52.27;95722.97;4939043;29;20403;-68
2023/08/12 04:17:30;;;;;;;;;;;;;;;19.31;52.79;95716.50;4938428;28;19927;-68
2023/08/12 04:19:56;;;;;;;;;;;;;;;19.32;52.01;95714.63;4938589;28;20017;-68
2023/08/12 04:22:21;;;;;;;;;;;;;;;19.35;51.84;95716.88;4938973;28;19922;-66
2023/08/12 04:24:46;;;;;;;;;;;;;;;19.26;51.55;95715.53;4947253;28;19918;-68
2023/08/12 04:27:11;;;;;;;;;;;;;;;19.33;51.84;95709.00;4941403;28;20048;-67
2023/08/12 04:29:37;;;;;;;;;;;;;;;19.36;51.98;95705.03;4941795;28;19922;-66
2023/08/12 04:32:02;;;;;;;;;;;;;;;19.33;52.18;95708.19;4941006;28;19934;-67
2023/08/12 04:34:27;;;;;;;;;;;;;;;19.38;51.48;95700.19;4935711;29;20331;-68
2023/08/12 04:36:52;;;;;;;;;;;;;;;19.23;52.42;95694.44;4939153;28;20001;-68
2023/08/12 04:39:18;;;;;;;;;;;;;;;19.19;52.57;95692.19;4941334;28;19928;-68
2023/08/12 04:41:43;;;;;;;;;;;;;;;19.27;52.27;95701.00;4938382;28;19929;-68
2023/08/12 04:44:08;;;;;;;;;;;;;;;19.31;51.05;95694.13;4940166;28;19926;-66
2023/08/12 04:46:33;;;;;;;;;;;;;;;19.36;51.35;95690.69;4937986;28;20134;-68
2023/08/12 04:48:58;;;;;;;;;;;;;;;19.42;50.33;95692.47;4940451;28;19954;-68
2023/08/12 04:51:24;;;;;;;;;;;;;;;19.42;51.45;95684.38;4935746;28;20342;-67
2023/08/12 04:53:49;;;;;;;;;;;;;;;19.39;51.68;95685.66;4941033;28;19942;-67
2023/08/12 04:56:15;;;;;;;;;;;;;;;19.42;52.08;95678.97;4939943;28;20485;-69
2023/08/12 04:58:40;;;;;;;;;;;;;;;19.44;51.82;95685.78;4940472;28;19922;-68
2023/08/12 05:01:05;;;;;;;;;;;;;;;19.45;51.21;95681.22;4940161;28;20001;-68
2023/08/12 05:03:30;;;;;;;;;;;;;;;19.43;51.93;95686.00;4940737;28;19984;-68
2023/08/12 05:05:56;;;;;;;;;;;;;;;19.44;51.99;95682.25;4940955;28;19910;-67
2023/08/12 05:08:21;;;;;;;;;;;;;;;19.51;51.56;95685.66;4940727;28;19933;-68
2023/08/12 05:10:47;;;;;;;;;;;;;;;19.58;49.75;95678.28;4939988;28;19941;-68
2023/08/12 05:13:12;;;;;;;;;;;;;;;19.62;50.09;95667.00;4940285;28;19993;-67
2023/08/12 05:15:37;;;;;;;;;;;;;;;19.66;50.54;95674.41;4940731;28;19930;-68
2023/08/12 05:18:03;;;;;;;;;;;;;;;19.69;50.29;95673.91;4939844;28;20383;-68
2023/08/12 05:20:28;;;;;;;;;;;;;;;19.70;51.11;95666.66;4940038;28;19922;-67
2023/08/12 05:22:53;;;;;;;;;;;;;;;19.70;50.89;95669.34;4938362;29;20256;-68
2023/08/12 05:25:18;;;;;;;;;;;;;;;19.73;50.87;95663.47;4939698;28;19966;-67
2023/08/12 05:27:44;;;;;;;;;;;;;;;19.73;50.59;95666.19;4938895;28;20144;-68
2023/08/12 05:30:09;;;;;;;;;;;;;;;19.74;51.04;95670.53;4940141;29;19969;-66
2023/08/12 05:32:34;;;;;;;;;;;;;;;19.72;51.56;95672.66;4940047;28;19997;-68
2023/08/12 05:34:59;;;;;;;;;;;;;;;19.76;50.91;95668.44;4939978;28;19923;-67
2023/08/12 05:37:25;;;;;;;;;;;;;;;19.87;50.41;95671.31;4940096;28;19926;-67
2023/08/12 05:39:50;;;;;;;;;;;;;;;19.83;49.58;95661.03;4940083;28;19957;-66
2023/08/12 05:42:15;;;;;;;;;;;;;;;19.88;50.33;95671.09;4935494;29;20354;-68
2023/08/12 05:44:41;;;;;;;;;;;;;;;19.94;50.18;95675.56;4939372;28;19974;-69
2023/08/12 05:47:06;;;;;;;;;;;;;;;19.96;50.23;95664.56;4940418;28;19945;-69
2023/08/12 05:49:31;;;;;;;;;;;;;;;20.05;49.58;95664.97;4939053;28;20082;-68
2023/08/12 05:51:56;;;;;;;;;;;;;;;20.18;49.98;95669.31;4934028;28;19938;-70
2023/08/12 05:54:22;;;;;;;;;;;;;;;20.31;50.34;95673.63;4940172;29;20422;-68
2023/08/12 05:56:47;;;;;;;;;;;;;;;20.47;50.38;95683.69;4938867;28;20430;-68
2023/08/12 05:59:12;;;;;;;;;;;;;;;20.72;49.70;95684.44;4940301;28;19919;-67
2023/08/12 06:01:37;;;;;;;;;;;;;;;20.91;49.17;95678.84;4938663;28;19933;-67
2023/08/12 06:04:03;;;;;;;;;;;;;;;20.94;48.97;95681.06;4939610;28;19933;-67
2023/08/12 06:06:28;;;;;;;;;;;;;;;20.96;48.18;95684.34;4937447;28;19922;-68
2023/08/12 06:08:53;;;;;;;;;;;;;;;20.92;48.10;95683.19;4939020;28;20451;-68
2023/08/12 06:11:19;;;;;;;;;;;;;;;20.93;46.23;95679.41;4939375;28;19973;-68
2023/08/12 06:13:44;;;;;;;;;;;;;;;21.16;47.80;95686.59;4938123;28;19922;-68
2023/08/12 06:16:09;;;;;;;;;;;;;;;20.72;49.19;95689.84;4939569;28;19933;-68
2023/08/12 06:18:35;;;;;;;;;;;;;;;21.05;45.91;95677.47;4940181;28;19926;-70
2023/08/12 06:21:00;;;;;;;;;;;;;;;21.19;48.25;95688.81;4936516;28;20288;-68
2023/08/12 06:23:25;;;;;;;;;;;;;;;20.67;49.23;95687.06;4940474;28;19922;-69
2023/08/12 06:25:51;;;;;;;;;;;;;;;20.61;49.64;95694.22;4938344;28;19985;-70
2023/08/12 06:28:16;;;;;;;;;;;;;;;20.73;49.34;95691.50;4939534;28;19918;-70
2023/08/12 06:30:44;;;;;;;;;;;;;;;21.18;48.72;95699.88;4940075;28;19933;-68
2023/08/12 06:33:09;;;;;;;;;;;;;;;21.60;47.52;95704.09;4933591;29;20550;-70
2023/08/12 06:35:34;;;;;;;;;;;;;;;20.86;48.62;95720.97;4937738;28;20121;-69
2023/08/12 06:38:00;;;;;;;;;;;;;;;20.76;49.57;95718.06;4939961;28;19960;-69
2023/08/12 06:40:26;;;;;;;;;;;;;;;20.60;49.54;95728.56;4938023;28;19930;-70
2023/08/12 06:42:51;;;;;;;;;;;;;;;20.80;49.35;95723.84;4935438;28;20311;-69
2023/08/12 06:45:17;;;;;;;;;;;;;;;20.95;49.28;95734.94;4939206;28;19981;-69
2023/08/12 06:47:42;;;;;;;;;;;;;;;21.01;49.33;95730.44;4939745;28;20439;-69
2023/08/12 06:50:07;;;;;;;;;;;;;;;20.54;49.83;95736.81;4937832;28;19974;-68
2023/08/12 06:52:33;;;;;;;;;;;;;;;20.42;50.59;95737.66;4937158;28;20078;-68
2023/08/12 06:54:58;;;;;;;;;;;;;;;20.96;49.87;95746.56;4939638;28;20303;-68
2023/08/12 06:57:24;;;;;;;;;;;;;;;21.10;50.27;95747.91;4938874;28;19923;-67
2023/08/12 06:59:49;;;;;;;;;;;;;;;20.47;49.64;95742.38;4939209;28;19926;-67
2023/08/12 07:02:14;;;;;;;;;;;;;;;20.82;50.05;95736.03;4939410;28;19975;-68
2023/08/12 07:04:40;;;;;;;;;;;;;;;20.82;49.91;95735.22;4938982;28;20368;-67
2023/08/12 07:07:05;;;;;;;;;;;;;;;20.81;49.57;95742.53;4939442;28;20091;-69
2023/08/12 07:09:30;;;;;;;;;;;;;;;20.39;49.46;95727.31;4939028;28;20376;-68
2023/08/12 07:11:55;;;;;;;;;;;;;;;19.47;53.13;95719.59;4939209;28;19926;-67
2023/08/12 07:14:21;;;;;;;;;;;;;;;19.55;52.64;95721.94;4943144;28;19926;-67
2023/08/12 07:16:46;;;;;;;;;;;;;;;20.05;51.67;95708.22;4942527;28;19972;-68
2023/08/12 07:19:11;;;;;;;;;;;;;;;20.14;50.62;95708.69;4942626;28;19918;-68
2023/08/12 07:21:36;;;;;;;;;;;;;;;20.04;50.42;95711.97;4938506;28;19930;-68
2023/08/12 07:24:02;;;;;;;;;;;;;;;19.20;52.18;95709.19;4937316;28;20049;-68
2023/08/12 07:26:27;;;;;;;;;;;;;;;19.75;51.46;95695.66;4934945;29;20387;-79
2023/08/12 07:28:52;;;;;;;;;;;;;;;20.13;50.42;95686.25;4943453;28;19939;-78
2023/08/12 07:31:18;;;;;;;;;;;;;;;20.19;50.60;95692.59;4945307;29;20089;-78
2023/08/12 07:33:43;;;;;;;;;;;;;;;19.71;51.92;95695.28;4940820;28;19965;-74
2023/08/12 07:36:08;;;;;;;;;;;;;;;19.49;53.50;95695.06;4941275;28;20352;-78
2023/08/12 07:38:34;;;;;;;;;;;;;;;19.92;51.68;95693.88;4943440;29;19925;-79
2023/08/12 07:40:59;;;;;;;;;;;;;;;20.38;50.33;95689.72;4938295;28;19927;-78
2023/08/12 07:43:25;;;;;;;;;;;;;;;21.01;48.77;95697.97;4937074;28;19923;-77
2023/08/12 07:45:50;;;;;;;;;;;;;;;20.80;44.74;95697.59;4937007;29;20077;-76
2023/08/12 07:48:16;;;;;;;;;;;;;;;20.61;47.68;95678.81;4943461;28;19991;-78
2023/08/12 07:50:41;;;;;;;;;;;;;;;20.92;48.48;95686.72;4935174;28;19931;-78
2023/08/12 07:53:06;;;;;;;;;;;;;;;20.40;49.52;95690.31;4939968;28;20061;-77
2023/08/12 07:55:31;;;;;;;;;;;;;;;19.26;52.78;95702.03;4942668;28;19949;-78
2023/08/12 07:57:57;;;;;;;;;;;;;;;19.88;47.16;95691.91;4940065;29;19970;-78
2023/08/12 08:00:22;;;;;;;;;;;;;;;20.27;49.11;95670.59;4943266;28;20480;-79
2023/08/12 08:02:47;;;;;;;;;;;;;;;20.41;45.29;95670.31;4946587;29;19926;-77
2023/08/12 08:05:12;;;;;;;;;;;;;;;20.73;43.09;95667.97;4966128;28;19915;-78
2023/08/12 08:07:38;;;;;;;;;;;;;;;21.05;42.06;95669.34;4969184;28;19949;-77
2023/08/12 08:10:03;;;;;;;;;;;;;;;21.28;42.39;95664.06;4968921;28;19930;-77
2023/08/12 08:12:28;;;;;;;;;;;;;;;21.51;47.27;95660.34;4963552;28;19927;-77
2023/08/12 08:14:53;;;;;;;;;;;;;;;21.44;43.71;95654.28;4968612;28;20005;-78
2023/08/12 08:17:19;;;;;;;;;;;;;;;21.75;46.88;95655.56;4969242;28;19934;-77
2023/08/12 08:19:44;;;;;;;;;;;;;;;22.02;46.94;95659.47;4969303;28;19938;-77
2023/08/12 08:22:09;;;;;;;;;;;;;;;22.37;46.63;95662.88;4967829;28;19933;-77
2023/08/12 08:24:34;;;;;;;;;;;;;;;22.34;45.93;95666.09;4967593;28;19936;-78
2023/08/12 08:27:00;;;;;;;;;;;;;;;22.48;45.61;95652.97;4966988;28;20143;-78
2023/08/12 08:29:25;;;;;;;;;;;;;;;22.59;45.29;95664.78;4967623;28;19930;-78
2023/08/12 08:31:50;;;;;;;;;;;;;;;22.34;44.83;95672.34;4967986;28;19989;-78
2023/08/12 08:34:15;;;;;;;;;;;;;;;22.21;46.19;95683.56;4968617;28;20017;-78
2023/08/12 08:36:41;;;;;;;;;;;;;;;22.36;46.00;95681.03;4967542;28;20008;-78
2023/08/12 08:39:06;;;;;;;;;;;;;;;22.37;45.73;95690.81;5080286;23;19980;-78
2023/08/12 08:41:33;;;;;;;;;;;;;;;21.12;47.60;95688.94;5006887;28;19910;-78
2023/08/12 08:44:02;;;;;;;;;;;;;;;22.12;45.36;95697.56;5006432;28;20009;-78
2023/08/12 08:46:27;;;;;;;;;;;;;;;21.22;48.08;95687.50;5006071;28;20150;-78
2023/08/12 08:48:53;;;;;;;;;;;;;;;21.55;47.34;95683.16;5006963;28;19941;-77
2023/08/12 08:51:18;;;;;;;;;;;;;;;21.77;46.78;95695.94;4990258;28;20121;-77
2023/08/12 08:53:44;;;;;;;;;;;;;;;21.60;47.77;95693.25;5006494;28;19932;-78
2023/08/12 08:56:12;;;;;;;;;;;;;;;20.77;49.33;95691.84;5004890;28;20014;-78
2023/08/12 08:58:40;;;;;;;;;;;;;;;19.63;52.15;95687.53;5006389;28;19910;-78
2023/08/12 09:01:06;;;;;;;;;;;;;;;20.76;50.24;95688.31;5005746;28;19910;-78
2023/08/12 09:03:32;;;;;;;;;;;;;;;20.76;49.32;95677.50;4979629;28;19938;-77
2023/08/12 09:05:57;;;;;;;;;;;;;;;20.94;49.59;95689.19;4986007;28;20138;-78
2023/08/12 09:08:22;;;;;;;;;;;;;;;21.04;49.52;95673.09;4984004;28;20370;-78
2023/08/12 09:10:48;;;;;;;;;;;;;;;20.30;51.35;95678.22;4985829;28;19933;-78
2023/08/12 09:13:14;;;;;;;;;;;;;;;21.11;49.22;95679.19;4975350;28;19976;-76
2023/08/12 09:15:40;;;;;;;;;;;;;;;21.11;49.67;95678.38;4961436;28;19968;-78
2023/08/12 09:18:06;;;;;;;;;;;;;;;20.68;50.00;95686.00;4949058;28;19902;-79
2023/08/12 09:20:31;;;;;;;;;;;;;;;19.45;53.56;95689.31;4965259;28;19973;-77
2023/08/12 09:22:57;;;;;;;;;;;;;;;21.00;50.09;95696.31;4982264;28;19918;-78
2023/08/12 09:25:23;;;;;;;;;;;;;;;21.00;48.95;95691.72;4969381;28;19922;-78
2023/08/12 09:27:48;;;;;;;;;;;;;;;21.84;47.92;95687.66;4975208;28;19925;-78
2023/08/12 09:30:13;;;;;;;;;;;;;;;21.45;47.08;95683.03;4972787;28;19945;-78
2023/08/12 09:32:38;;;;;;;;;;;;;;;21.21;48.92;95702.09;4972061;28;19923;-78
2023/08/12 09:35:05;;;;;;;;;;;;;;;19.42;52.64;95700.56;4973112;28;19922;-77
2023/08/12 09:37:31;;;;;;;;;;;;;;;20.95;48.47;95691.66;4974689;28;20406;-78
2023/08/12 09:39:56;;;;;;;;;;;;;;;21.51;46.72;95690.97;4969713;28;19927;-76
2023/08/12 09:42:21;;;;;;;;;;;;;;;21.30;47.52;95691.69;4965344;28;20414;-77
2023/08/12 09:44:46;;;;;;;;;;;;;;;21.72;46.59;95693.97;4963115;28;20346;-78
2023/08/12 09:47:12;;;;;;;;;;;;;;;21.11;47.48;95691.91;4961551;28;19914;-79
2023/08/12 09:49:40;;;;;;;;;;;;;;;21.47;47.38;95689.00;4960616;28;20556;-78
2023/08/12 09:52:06;;;;;;;;;;;;;;;21.56;46.95;95686.69;4959162;28;20009;-77
2023/08/12 09:54:31;;;;;;;;;;;;;;;21.06;47.02;95692.66;4975665;28;20361;-77
2023/08/12 09:57:00;;;;;;;;;;;;;;;21.92;45.55;95692.66;4959367;28;19981;-77
2023/08/12 09:59:36;;;;;;;;;;;;;;;22.44;44.02;95689.81;4959565;28;20278;-77
2023/08/12 10:02:08;;;;;;;;;;;;;;;22.90;42.87;95700.38;4935937;28;20520;-77
2023/08/12 10:04:35;;;;;;;;;;;;;;;22.00;44.71;95713.13;4960637;28;20381;-79
2023/08/12 10:07:00;;;;;;;;;;;;;;;22.41;44.01;95707.41;4959807;28;19949;-78
2023/08/12 10:09:25;;;;;;;;;;;;;;;22.23;44.40;95722.91;4961309;28;19918;-78
2023/08/12 10:11:52;;;;;;;;;;;;;;;21.85;44.99;95710.94;4965288;28;19925;-78
2023/08/12 10:14:17;;;;;;;;;;;;;;;21.72;45.59;95709.44;4959358;28;20446;-77
2023/08/12 10:16:45;;;;;;;;;;;;;;;21.40;46.68;95710.81;4957943;28;20146;-79
2023/08/12 10:19:10;;;;;;;;;;;;;;;18.99;52.08;95707.84;4960550;28;20368;-78
2023/08/12 10:21:36;;;;;;;;;;;;;;;20.07;50.70;95701.53;4961349;28;19957;-78
2023/08/12 10:24:01;;;;;;;;;;;;;;;20.44;50.88;95688.75;4976775;28;19944;-78
2023/08/12 10:26:26;;;;;;;;;;;;;;;21.32;47.60;95701.25;4960247;28;19918;-79
2023/08/12 10:28:52;;;;;;;;;;;;;;;21.87;47.85;95693.41;4961310;28;20036;-77
2023/08/12 10:31:17;;;;;;;;;;;;;;;20.87;49.72;95708.25;4959559;28;20303;-78
2023/08/12 10:33:42;;;;;;;;;;;;;;;19.78;51.93;95698.69;4973886;28;19937;-77
2023/08/12 10:36:07;;;;;;;;;;;;;;;20.20;50.70;95689.63;4957352;28;20009;-78
2023/08/12 10:38:33;;;;;;;;;;;;;;;20.85;50.11;95708.53;4958396;28;19964;-78
2023/08/12 10:41:17;;;;;;;;;;;;;;;21.18;48.75;95711.50;4957751;28;20261;-77
2023/08/12 10:43:53;;;;;;;;;;;;;;;20.67;49.77;95709.50;4973945;28;19998;-77
2023/08/12 10:46:28;;;;;;;;;;;;;;;21.10;48.59;95701.09;4958512;28;20121;-78
2023/08/12 10:48:57;;;;;;;;;;;;;;;21.30;46.43;95689.81;4963239;28;20227;-78
2023/08/12 10:51:42;;;;;;;;;;;;;;;21.98;46.58;95698.97;4978369;28;20072;-77
2023/08/12 10:54:15;;;;;;;;;;;;;;;22.06;44.98;95692.31;4961667;28;20012;-77
2023/08/12 10:56:59;;;;;;;;;;;;;;;22.68;46.13;95682.25;4962553;28;19921;-78
2023/08/12 10:59:43;;;;;;;;;;;;;;;22.92;46.05;95680.03;4961123;28;19918;-78
2023/08/12 11:02:12;;;;;;;;;;;;;;;22.69;42.76;95675.75;4956432;28;20033;-79
2023/08/12 11:04:38;;;;;;;;;;;;;;;22.98;45.69;95674.66;4973464;28;19958;-78
2023/08/12 11:07:14;;;;;;;;;;;;;;;23.36;43.59;95675.59;4957090;28;19915;-77
2023/08/12 11:09:39;;;;;;;;;;;;;;;21.57;46.26;95661.25;4975141;28;20438;-79
2023/08/12 11:12:05;;;;;;;;;;;;;;;22.34;45.91;95669.63;4974733;28;19930;-80
2023/08/12 11:14:30;;;;;;;;;;;;;;;23.78;43.96;95668.56;4961271;28;19949;-78
2023/08/12 11:16:55;;;;;;;;;;;;;;;23.97;42.97;95664.56;4940374;28;20366;-78
2023/08/12 11:19:21;;;;;;;;;;;;;;;24.02;42.92;95662.72;4959636;28;20101;-78
2023/08/12 11:21:46;;;;;;;;;;;;;;;23.08;44.83;95657.66;4960075;28;19949;-79
2023/08/12 11:24:11;;;;;;;;;;;;;;;24.29;42.51;95645.41;4958516;28;20181;-79
2023/08/12 11:26:36;;;;;;;;;;;;;;;24.22;43.39;95660.34;4958965;28;20397;-79
2023/08/12 11:29:07;;;;;;;;;;;;;;;24.00;41.76;95655.91;4959682;28;19992;-78
2023/08/12 11:31:33;;;;;;;;;;;;;;;23.88;43.46;95651.50;4952363;28;19924;-79
2023/08/12 11:33:59;;;;;;;;;;;;;;;23.58;42.45;95641.25;4977975;28;19918;-78
2023/08/12 11:36:24;;;;;;;;;;;;;;;22.77;43.47;95644.59;4965368;28;19961;-79
2023/08/12 11:38:49;;;;;;;;;;;;;;;21.59;46.30;95642.88;4962805;28;19922;-79
2023/08/12 11:41:17;;;;;;;;;;;;;;;22.17;45.70;95636.34;4943355;28;19941;-77
2023/08/12 11:43:42;;;;;;;;;;;;;;;21.25;47.55;95646.41;4974993;28;19951;-77
2023/08/12 11:46:07;;;;;;;;;;;;;;;20.21;49.62;95650.75;4975600;28;20141;-78
2023/08/12 11:48:32;;;;;;;;;;;;;;;20.52;49.01;95653.22;4958683;28;20147;-77
2023/08/12 11:50:58;;;;;;;;;;;;;;;21.04;48.00;95656.06;4959038;28;19964;-77
2023/08/12 11:53:23;;;;;;;;;;;;;;;20.51;50.00;95643.47;4955564;28;19922;-78
2023/08/12 11:55:48;;;;;;;;;;;;;;;20.82;49.48;95622.44;4945779;28;20108;-78
2023/08/12 11:58:18;;;;;;;;;;;;;;;21.26;48.45;95618.25;4958842;28;20418;-78
2023/08/12 12:00:43;;;;;;;;;;;;;;;21.18;48.62;95626.78;4958874;28;20340;-77
2023/08/12 12:03:08;;;;;;;;;;;;;;;20.64;49.50;95636.16;4962218;28;19937;-79
2023/08/12 12:05:34;;;;;;;;;;;;;;;20.09;50.18;95633.75;4960855;28;20004;-78
2023/08/12 12:08:00;;;;;;;;;;;;;;;20.56;49.33;95613.81;4958131;28;19977;-78
2023/08/12 12:10:32;;;;;;;;;;;;;;;21.36;48.49;95621.16;4942209;28;19918;-78
2023/08/12 12:12:57;;;;;;;;;;;;;;;21.91;47.12;95634.13;4974014;28;19952;-78
2023/08/12 12:15:22;;;;;;;;;;;;;;;21.59;46.91;95627.44;4958050;28;20395;-79
2023/08/12 12:17:49;;;;;;;;;;;;;;;21.90;46.79;95633.25;4958790;28;19925;-79
2023/08/12 12:20:14;;;;;;;;;;;;;;;22.16;47.49;95635.50;4956974;28;19922;-79
2023/08/12 12:22:40;;;;;;;;;;;;;;;22.30;46.58;95635.16;4958816;28;19922;-78
2023/08/12 12:25:06;;;;;;;;;;;;;;;22.09;46.09;95653.88;4957330;28;20240;-78
2023/08/12 12:27:31;;;;;;;;;;;;;;;20.87;48.65;95660.38;4959215;28;19922;-78
2023/08/12 12:29:57;;;;;;;;;;;;;;;20.43;49.11;95655.50;4941338;28;20032;-78
2023/08/12 12:32:22;;;;;;;;;;;;;;;20.09;49.43;95658.88;4957850;28;19996;-78
2023/08/12 12:34:47;;;;;;;;;;;;;;;21.41;46.23;95669.13;4958427;28;20126;-78
2023/08/12 12:37:13;;;;;;;;;;;;;;;21.33;46.49;95651.44;4974061;28;20030;-79
2023/08/12 12:39:39;;;;;;;;;;;;;;;21.34;46.04;95666.59;4961357;28;19926;-78
2023/08/12 12:42:04;;;;;;;;;;;;;;;20.59;47.88;95664.72;4958229;28;19986;-77